createdAt,value
2017-03-11T00:00:02.252Z,963.22
2017-03-11T00:01:02.229Z,963.23
2017-03-11T00:02:02.213Z,963.22
2017-03-11T00:03:02.197Z,963.23
2017-03-11T00:04:02.177Z,963.21
2017-03-11T00:05:02.162Z,963.18
2017-03-11T00:06:02.145Z,963.2
2017-03-11T00:07:02.127Z,963.14
2017-03-11T00:08:02.109Z,963.09
2017-03-11T00:09:02.092Z,963.12
2017-03-11T00:10:02.075Z,963.12
2017-03-11T00:11:02.061Z,963.14
2017-03-11T00:12:02.040Z,963.14
2017-03-11T00:13:02.023Z,963.13
2017-03-11T00:14:02.006Z,963.06
2017-03-11T00:15:01.991Z,963.11
2017-03-11T00:16:01.971Z,963.1
2017-03-11T00:17:01.954Z,963.09
2017-03-11T00:18:01.939Z,963.09
2017-03-11T00:19:01.920Z,963.09
2017-03-11T00:20:01.902Z,963.14
2017-03-11T00:21:01.884Z,963.07
2017-03-11T00:22:01.869Z,963.11
2017-03-11T00:23:01.886Z,963.12
2017-03-11T00:24:01.832Z,963.12
2017-03-11T00:25:01.840Z,963.14
2017-03-11T00:26:01.797Z,963.12
2017-03-11T00:27:01.780Z,963.13
2017-03-11T00:28:01.763Z,963.14
2017-03-11T00:29:01.749Z,963.13
2017-03-11T00:30:01.728Z,963.13
2017-03-11T00:31:01.710Z,963.13
2017-03-11T00:32:01.694Z,963.13
2017-03-11T00:33:01.677Z,963.14
2017-03-11T00:34:01.658Z,963.11
2017-03-11T00:35:01.640Z,963.14
2017-03-11T00:36:01.624Z,963.12
2017-03-11T00:37:01.606Z,963.14
2017-03-11T00:38:01.589Z,963.08
2017-03-11T00:39:01.572Z,963.09
2017-03-11T00:40:01.554Z,963.14
2017-03-11T00:41:01.535Z,963.08
2017-03-11T00:42:01.519Z,963.09
2017-03-11T00:43:01.502Z,963.07
2017-03-11T00:44:01.485Z,963.05
2017-03-11T00:45:01.466Z,963.11
2017-03-11T00:46:01.449Z,963.05
2017-03-11T00:47:01.432Z,963.1
2017-03-11T00:48:01.414Z,963.04
2017-03-11T00:49:01.397Z,962.98
2017-03-11T00:50:01.379Z,963.04
2017-03-11T00:51:01.362Z,963
2017-03-11T00:52:01.344Z,962.98
2017-03-11T00:53:01.334Z,962.96
2017-03-11T00:54:01.310Z,962.94
2017-03-11T00:55:01.293Z,962.92
2017-03-11T00:56:01.274Z,962.92
2017-03-11T00:57:01.258Z,962.97
2017-03-11T00:58:01.272Z,962.92
2017-03-11T00:59:01.220Z,962.93
2017-03-11T01:00:01.204Z,962.95
2017-03-11T01:01:01.189Z,962.95
2017-03-11T01:02:01.174Z,962.91
2017-03-11T01:03:01.153Z,962.92
2017-03-11T01:04:01.135Z,962.93
2017-03-11T01:05:01.117Z,962.95
2017-03-11T01:06:01.100Z,962.94
2017-03-11T01:07:01.084Z,962.95
2017-03-11T01:08:01.065Z,962.98
2017-03-11T01:09:01.048Z,962.95
2017-03-11T01:10:01.031Z,962.88
2017-03-11T01:11:01.011Z,962.95
2017-03-11T01:12:00.997Z,962.89
2017-03-11T01:13:00.979Z,962.88
2017-03-11T01:14:00.960Z,962.88
2017-03-11T01:15:00.944Z,962.9
2017-03-11T01:16:00.925Z,962.88
2017-03-11T01:17:00.909Z,962.86
2017-03-11T01:18:00.891Z,962.84
2017-03-11T01:19:00.872Z,962.81
2017-03-11T01:20:00.856Z,962.84
2017-03-11T01:21:00.843Z,962.83
2017-03-11T01:22:00.820Z,962.82
2017-03-11T01:23:00.803Z,962.89
2017-03-11T01:24:00.787Z,962.88
2017-03-11T01:25:00.768Z,962.88
2017-03-11T01:26:00.751Z,962.84
2017-03-11T01:27:00.733Z,962.85
2017-03-11T01:28:00.714Z,962.85
2017-03-11T01:29:00.698Z,962.82
2017-03-11T01:30:00.680Z,962.82
2017-03-11T01:31:00.663Z,962.83
2017-03-11T01:32:00.646Z,962.81
2017-03-11T01:33:00.628Z,962.8
2017-03-11T01:34:00.610Z,962.83
2017-03-11T01:35:00.594Z,962.81
2017-03-11T01:36:00.574Z,962.77
2017-03-11T01:37:00.558Z,962.78
2017-03-11T01:38:00.540Z,962.72
2017-03-11T01:39:00.521Z,962.76
2017-03-11T01:40:00.504Z,962.77
2017-03-11T01:41:00.488Z,962.76
2017-03-11T01:42:00.469Z,962.74
2017-03-11T01:43:00.453Z,962.73
2017-03-11T01:44:00.435Z,962.74
2017-03-11T01:45:00.417Z,962.81
2017-03-11T01:46:00.400Z,962.75
2017-03-11T01:47:00.381Z,962.74
2017-03-11T01:48:00.366Z,962.71
2017-03-11T01:49:00.349Z,962.75
2017-03-11T01:50:00.329Z,962.68
2017-03-11T01:51:00.314Z,962.72
2017-03-11T01:52:00.296Z,962.73
2017-03-11T01:53:00.277Z,962.7
2017-03-11T01:54:00.259Z,962.72
2017-03-11T01:55:00.242Z,962.74
2017-03-11T01:56:00.225Z,962.79
2017-03-11T01:57:00.208Z,962.76
2017-03-11T01:58:00.189Z,962.75
2017-03-11T01:59:00.171Z,962.76
2017-03-11T02:00:00.184Z,962.72
2017-03-11T02:01:00.136Z,962.75
2017-03-11T02:02:00.118Z,962.76
2017-03-11T02:03:00.102Z,962.76
2017-03-11T02:04:00.083Z,962.71
2017-03-11T02:05:00.066Z,962.68
2017-03-11T02:06:00.047Z,962.67
2017-03-11T02:07:00.030Z,962.65
2017-03-11T02:08:00.012Z,962.67
2017-03-11T02:08:59.995Z,962.62
2017-03-11T02:09:59.976Z,962.61
2017-03-11T02:10:59.959Z,962.59
2017-03-11T02:11:59.941Z,962.62
2017-03-11T02:12:59.924Z,962.61
2017-03-11T02:13:59.907Z,962.63
2017-03-11T02:14:59.889Z,962.61
2017-03-11T02:15:59.870Z,962.61
2017-03-11T02:16:59.852Z,962.61
2017-03-11T02:17:59.836Z,962.6
2017-03-11T02:18:59.818Z,962.58
2017-03-11T02:19:59.799Z,962.54
2017-03-11T02:20:59.782Z,962.51
2017-03-11T02:21:59.764Z,962.48
2017-03-11T02:22:59.746Z,962.47
2017-03-11T02:23:59.730Z,962.42
2017-03-11T02:24:59.711Z,962.39
2017-03-11T02:25:59.693Z,962.39
2017-03-11T02:26:59.675Z,962.37
2017-03-11T02:27:59.658Z,962.34
2017-03-11T02:28:59.643Z,962.33
2017-03-11T02:29:59.623Z,962.37
2017-03-11T02:30:59.606Z,962.37
2017-03-11T02:31:59.588Z,962.31
2017-03-11T02:32:59.571Z,962.3
2017-03-11T02:33:59.552Z,962.31
2017-03-11T02:34:59.535Z,962.31
2017-03-11T02:35:59.517Z,962.31
2017-03-11T02:36:59.499Z,962.29
2017-03-11T02:37:59.481Z,962.25
2017-03-11T02:38:59.463Z,962.27
2017-03-11T02:39:59.446Z,962.28
2017-03-11T02:40:59.428Z,962.25
2017-03-11T02:41:59.411Z,962.25
2017-03-11T02:42:59.394Z,962.2
2017-03-11T02:43:59.377Z,962.16
2017-03-11T02:44:59.358Z,962.24
2017-03-11T02:45:59.341Z,962.19
2017-03-11T02:46:59.323Z,962.13
2017-03-11T02:47:59.312Z,962.18
2017-03-11T02:48:59.287Z,962.15
2017-03-11T02:49:59.278Z,962.12
2017-03-11T02:50:59.251Z,962.11
2017-03-11T02:51:59.237Z,962.09
2017-03-11T02:52:59.216Z,962.06
2017-03-11T02:53:59.200Z,962.12
2017-03-11T02:54:59.182Z,962.09
2017-03-11T02:55:59.164Z,962.1
2017-03-11T02:56:59.146Z,962.07
2017-03-11T02:57:59.130Z,962.06
2017-03-11T02:58:59.112Z,962.09
2017-03-11T02:59:59.093Z,962.05
2017-03-11T03:00:59.077Z,962.05
2017-03-11T03:01:59.059Z,962.07
2017-03-11T03:02:59.040Z,962.07
2017-03-11T03:03:59.026Z,962.07
2017-03-11T03:04:59.007Z,962.06
2017-03-11T03:05:58.990Z,962.07
2017-03-11T03:06:58.971Z,962.12
2017-03-11T03:07:58.954Z,962.09
2017-03-11T03:08:58.937Z,962.1
2017-03-11T03:09:58.919Z,962.11
2017-03-11T03:10:58.902Z,962.13
2017-03-11T03:11:58.884Z,962.09
2017-03-11T03:12:58.868Z,962.05
2017-03-11T03:13:58.848Z,962.01
2017-03-11T03:14:58.834Z,962.06
2017-03-11T03:15:58.815Z,962.05
2017-03-11T03:16:58.798Z,962.02
2017-03-11T03:17:58.782Z,962
2017-03-11T03:18:58.764Z,961.99
2017-03-11T03:19:58.747Z,961.98
2017-03-11T03:20:58.729Z,961.98
2017-03-11T03:21:58.711Z,961.96
2017-03-11T03:22:58.694Z,961.92
2017-03-11T03:23:58.678Z,961.92
2017-03-11T03:24:58.659Z,961.88
2017-03-11T03:25:58.642Z,961.87
2017-03-11T03:26:58.627Z,961.85
2017-03-11T03:27:58.610Z,961.89
2017-03-11T03:28:58.592Z,961.86
2017-03-11T03:29:58.574Z,961.84
2017-03-11T03:30:58.557Z,961.83
2017-03-11T03:31:58.541Z,961.85
2017-03-11T03:32:58.523Z,961.83
2017-03-11T03:33:58.508Z,961.81
2017-03-11T03:34:58.491Z,961.84
2017-03-11T03:35:58.470Z,961.87
2017-03-11T03:36:58.455Z,961.86
2017-03-11T03:37:58.438Z,961.87
2017-03-11T03:38:58.421Z,961.86
2017-03-11T03:39:58.403Z,961.87
2017-03-11T03:40:58.387Z,961.85
2017-03-11T03:41:58.370Z,961.86
2017-03-11T03:42:58.354Z,961.82
2017-03-11T03:43:58.335Z,961.82
2017-03-11T03:44:58.319Z,961.82
2017-03-11T03:45:58.302Z,961.83
2017-03-11T03:46:58.285Z,961.82
2017-03-11T03:47:58.268Z,961.84
2017-03-11T03:48:58.279Z,961.87
2017-03-11T03:49:58.235Z,961.89
2017-03-11T03:50:58.216Z,961.86
2017-03-11T03:51:58.201Z,961.84
2017-03-11T03:52:58.184Z,961.85
2017-03-11T03:53:58.167Z,961.84
2017-03-11T03:54:58.150Z,961.84
2017-03-11T03:55:58.132Z,961.89
2017-03-11T03:56:58.116Z,961.84
2017-03-11T03:57:58.099Z,961.86
2017-03-11T03:58:58.081Z,961.86
2017-03-11T03:59:58.066Z,961.75
2017-03-11T04:00:58.050Z,961.76
2017-03-11T04:01:58.032Z,961.74
2017-03-11T04:02:58.014Z,961.63
2017-03-11T04:03:57.999Z,961.63
2017-03-11T04:04:57.982Z,961.6
2017-03-11T04:05:57.964Z,961.58
2017-03-11T04:06:57.949Z,961.61
2017-03-11T04:07:57.931Z,961.61
2017-03-11T04:08:57.914Z,961.64
2017-03-11T04:09:57.897Z,961.69
2017-03-11T04:10:57.881Z,961.7
2017-03-11T04:11:57.864Z,961.74
2017-03-11T04:12:57.847Z,961.74
2017-03-11T04:13:57.830Z,961.66
2017-03-11T04:14:57.814Z,961.69
2017-03-11T04:15:57.797Z,961.66
2017-03-11T04:16:57.781Z,961.67
2017-03-11T04:17:57.765Z,961.62
2017-03-11T04:18:57.747Z,961.62
2017-03-11T04:19:57.764Z,961.66
2017-03-11T04:20:57.713Z,961.62
2017-03-11T04:21:57.698Z,961.64
2017-03-11T04:22:57.681Z,961.58
2017-03-11T04:23:57.668Z,961.57
2017-03-11T04:24:57.647Z,961.59
2017-03-11T04:25:57.633Z,961.56
2017-03-11T04:26:57.614Z,961.58
2017-03-11T04:27:57.597Z,961.55
2017-03-11T04:28:57.580Z,961.55
2017-03-11T04:29:57.564Z,961.57
2017-03-11T04:30:57.547Z,961.55
2017-03-11T04:31:57.530Z,961.57
2017-03-11T04:32:57.513Z,961.56
2017-03-11T04:33:57.498Z,961.55
2017-03-11T04:34:57.480Z,961.54
2017-03-11T04:35:57.463Z,961.51
2017-03-11T04:36:57.446Z,961.51
2017-03-11T04:37:57.429Z,961.5
2017-03-11T04:38:57.412Z,961.51
2017-03-11T04:39:57.396Z,961.45
2017-03-11T04:40:57.380Z,961.46
2017-03-11T04:41:57.361Z,961.46
2017-03-11T04:42:57.345Z,961.44
2017-03-11T04:43:57.328Z,961.47
2017-03-11T04:44:57.313Z,961.47
2017-03-11T04:45:57.295Z,961.47
2017-03-11T04:46:57.280Z,961.51
2017-03-11T04:47:57.261Z,961.47
2017-03-11T04:48:57.245Z,961.54
2017-03-11T04:49:57.228Z,961.55
2017-03-11T04:50:57.211Z,961.63
2017-03-11T04:51:57.194Z,961.64
2017-03-11T04:52:57.179Z,961.7
2017-03-11T04:53:57.161Z,961.71
2017-03-11T04:54:57.145Z,961.69
2017-03-11T04:55:57.128Z,961.62
2017-03-11T04:56:57.110Z,961.58
2017-03-11T04:57:57.096Z,961.53
2017-03-11T04:58:57.078Z,961.48
2017-03-11T04:59:57.060Z,961.45
2017-03-11T05:00:57.044Z,961.41
2017-03-11T05:01:57.028Z,961.44
2017-03-11T05:02:57.011Z,961.4
2017-03-11T05:03:56.993Z,961.4
2017-03-11T05:04:56.978Z,961.39
2017-03-11T05:05:57.007Z,961.42
2017-03-11T05:06:56.992Z,961.46
2017-03-11T05:07:56.928Z,961.48
2017-03-11T05:08:56.909Z,961.51
2017-03-11T05:09:57.467Z,961.49
2017-03-11T05:10:56.876Z,961.53
2017-03-11T05:11:56.860Z,961.53
2017-03-11T05:12:56.843Z,961.53
2017-03-11T05:13:56.828Z,961.54
2017-03-11T05:14:56.810Z,961.55
2017-03-11T05:15:56.794Z,961.55
2017-03-11T05:16:56.777Z,961.5
2017-03-11T05:17:56.760Z,961.53
2017-03-11T05:18:56.743Z,961.54
2017-03-11T05:19:56.728Z,961.49
2017-03-11T05:20:56.711Z,961.58
2017-03-11T05:21:56.693Z,961.54
2017-03-11T05:22:56.677Z,961.55
2017-03-11T05:23:56.660Z,961.56
2017-03-11T05:24:56.644Z,961.58
2017-03-11T05:25:56.626Z,961.57
2017-03-11T05:26:56.609Z,961.61
2017-03-11T05:27:56.593Z,961.64
2017-03-11T05:28:56.578Z,961.66
2017-03-11T05:29:56.691Z,961.66
2017-03-11T05:30:56.543Z,961.73
2017-03-11T05:31:56.528Z,961.69
2017-03-11T05:32:56.646Z,961.69
2017-03-11T05:33:56.498Z,961.72
2017-03-11T05:34:56.479Z,961.73
2017-03-11T05:35:56.602Z,961.74
2017-03-11T05:36:56.443Z,961.71
2017-03-11T05:37:56.427Z,961.67
2017-03-11T05:38:56.711Z,961.68
2017-03-11T05:39:56.396Z,961.69
2017-03-11T05:40:56.741Z,961.64
2017-03-11T05:41:56.360Z,961.63
2017-03-11T05:42:56.489Z,961.65
2017-03-11T05:43:56.327Z,961.65
2017-03-11T05:44:56.310Z,961.64
2017-03-11T05:45:56.431Z,961.65
2017-03-11T05:46:56.279Z,961.66
2017-03-11T05:47:56.261Z,961.66
2017-03-11T05:48:56.550Z,961.68
2017-03-11T05:49:56.228Z,961.69
2017-03-11T05:50:56.212Z,961.72
2017-03-11T05:51:56.199Z,961.68
2017-03-11T05:52:56.323Z,961.68
2017-03-11T05:53:56.164Z,961.72
2017-03-11T05:54:56.147Z,961.73
2017-03-11T05:55:56.248Z,961.73
2017-03-11T05:56:56.113Z,961.75
2017-03-11T05:57:56.097Z,961.72
2017-03-11T05:58:56.368Z,961.77
2017-03-11T05:59:56.065Z,961.73
2017-03-11T06:00:56.048Z,961.74
2017-03-11T06:01:56.031Z,961.76
2017-03-11T06:02:56.014Z,961.78
2017-03-11T06:03:55.998Z,961.8
2017-03-11T06:04:56.100Z,961.77
2017-03-11T06:05:55.965Z,961.76
2017-03-11T06:06:55.949Z,961.69
2017-03-11T06:07:55.933Z,961.7
2017-03-11T06:08:55.917Z,961.7
2017-03-11T06:09:55.900Z,961.71
2017-03-11T06:10:55.884Z,961.72
2017-03-11T06:11:55.867Z,961.68
2017-03-11T06:12:55.915Z,961.64
2017-03-11T06:13:55.835Z,961.65
2017-03-11T06:14:55.819Z,961.64
2017-03-11T06:15:55.803Z,961.67
2017-03-11T06:16:55.785Z,961.7
2017-03-11T06:17:55.771Z,961.71
2017-03-11T06:18:55.978Z,961.75
2017-03-11T06:19:55.738Z,961.78
2017-03-11T06:20:55.721Z,961.78
2017-03-11T06:21:55.840Z,961.76
2017-03-11T06:22:55.689Z,961.78
2017-03-11T06:23:55.673Z,961.84
2017-03-11T06:24:55.657Z,961.83
2017-03-11T06:25:55.643Z,961.81
2017-03-11T06:26:55.625Z,961.78
2017-03-11T06:27:55.609Z,961.77
2017-03-11T06:28:55.593Z,961.76
2017-03-11T06:29:55.577Z,961.74
2017-03-11T06:30:55.561Z,961.74
2017-03-11T06:31:55.545Z,961.69
2017-03-11T06:32:55.528Z,961.71
2017-03-11T06:33:55.513Z,961.68
2017-03-11T06:34:55.496Z,961.67
2017-03-11T06:35:55.482Z,961.65
2017-03-11T06:36:55.481Z,961.65
2017-03-11T06:37:55.450Z,961.6
2017-03-11T06:38:55.433Z,961.62
2017-03-11T06:39:55.552Z,961.59
2017-03-11T06:40:55.401Z,961.64
2017-03-11T06:41:55.385Z,961.57
2017-03-11T06:42:55.449Z,961.55
2017-03-11T06:43:55.353Z,961.56
2017-03-11T06:44:55.338Z,961.64
2017-03-11T06:45:55.419Z,961.58
2017-03-11T06:46:55.308Z,961.56
2017-03-11T06:47:55.291Z,961.59
2017-03-11T06:48:55.274Z,961.56
2017-03-11T06:49:55.258Z,961.61
2017-03-11T06:50:55.244Z,961.65
2017-03-11T06:51:55.367Z,961.64
2017-03-11T06:52:55.212Z,961.61
2017-03-11T06:53:55.196Z,961.59
2017-03-11T06:54:55.213Z,961.6
2017-03-11T06:55:55.166Z,961.63
2017-03-11T06:56:55.149Z,961.58
2017-03-11T06:57:55.149Z,961.6
2017-03-11T06:58:55.119Z,961.63
2017-03-11T06:59:55.104Z,961.64
2017-03-11T07:00:55.184Z,961.6
2017-03-11T07:01:55.073Z,961.59
2017-03-11T07:02:55.057Z,961.57
2017-03-11T07:03:55.102Z,961.53
2017-03-11T07:04:55.027Z,961.53
2017-03-11T07:05:55.012Z,961.47
2017-03-11T07:06:55.154Z,961.51
2017-03-11T07:07:54.980Z,961.53
2017-03-11T07:08:54.965Z,961.49
2017-03-11T07:09:55.124Z,961.45
2017-03-11T07:10:54.935Z,961.44
2017-03-11T07:11:54.919Z,961.45
2017-03-11T07:12:54.906Z,961.42
2017-03-11T07:13:54.889Z,961.44
2017-03-11T07:14:54.875Z,961.43
2017-03-11T07:15:55.000Z,961.46
2017-03-11T07:16:54.843Z,961.45
2017-03-11T07:17:54.830Z,961.5
2017-03-11T07:18:54.813Z,961.51
2017-03-11T07:19:54.799Z,961.45
2017-03-11T07:20:54.784Z,961.46
2017-03-11T07:21:54.770Z,961.45
2017-03-11T07:22:54.755Z,961.42
2017-03-11T07:23:54.738Z,961.35
2017-03-11T07:24:54.724Z,961.37
2017-03-11T07:25:54.711Z,961.31
2017-03-11T07:26:54.696Z,961.35
2017-03-11T07:27:54.682Z,961.34
2017-03-11T07:28:54.667Z,961.35
2017-03-11T07:29:54.651Z,961.33
2017-03-11T07:30:54.637Z,961.34
2017-03-11T07:31:54.622Z,961.35
2017-03-11T07:32:54.611Z,961.38
2017-03-11T07:33:54.594Z,961.37
2017-03-11T07:34:54.579Z,961.4
2017-03-11T07:35:54.565Z,961.4
2017-03-11T07:36:54.549Z,961.44
2017-03-11T07:37:54.537Z,961.42
2017-03-11T07:38:54.520Z,961.46
2017-03-11T07:39:54.507Z,961.46
2017-03-11T07:40:54.492Z,961.47
2017-03-11T07:41:54.479Z,961.51
2017-03-11T07:42:54.466Z,961.5
2017-03-11T07:43:54.450Z,961.54
2017-03-11T07:44:54.435Z,961.55
2017-03-11T07:45:54.420Z,961.51
2017-03-11T07:46:54.408Z,961.51
2017-03-11T07:47:54.394Z,961.52
2017-03-11T07:48:54.379Z,961.51
2017-03-11T07:49:54.366Z,961.52
2017-03-11T07:50:54.351Z,961.5
2017-03-11T07:51:54.360Z,961.52
2017-03-11T07:52:54.324Z,961.51
2017-03-11T07:53:54.310Z,961.49
2017-03-11T07:54:54.298Z,961.51
2017-03-11T07:55:54.281Z,961.44
2017-03-11T07:56:54.269Z,961.41
2017-03-11T07:57:54.255Z,961.43
2017-03-11T07:58:54.241Z,961.48
2017-03-11T07:59:54.227Z,961.44
2017-03-11T08:00:54.216Z,961.48
2017-03-11T08:01:54.201Z,961.5
2017-03-11T08:02:54.187Z,961.5
2017-03-11T08:03:54.174Z,961.52
2017-03-11T08:04:54.161Z,961.55
2017-03-11T08:05:54.146Z,961.54
2017-03-11T08:06:54.133Z,961.55
2017-03-11T08:07:54.119Z,961.52
2017-03-11T08:08:54.107Z,961.54
2017-03-11T08:09:54.092Z,961.54
2017-03-11T08:10:54.079Z,961.53
2017-03-11T08:11:54.066Z,961.5
2017-03-11T08:12:54.054Z,961.51
2017-03-11T08:13:54.040Z,961.5
2017-03-11T08:14:54.026Z,961.51
2017-03-11T08:15:54.014Z,961.5
2017-03-11T08:16:54.001Z,961.54
2017-03-11T08:17:53.986Z,961.54
2017-03-11T08:18:53.974Z,961.56
2017-03-11T08:19:53.961Z,961.53
2017-03-11T08:22:53.922Z,961.59
2017-03-11T08:23:53.910Z,961.51
2017-03-11T08:24:53.896Z,961.51
2017-03-11T08:25:53.884Z,961.48
2017-03-11T08:26:53.871Z,961.47
2017-03-11T08:27:53.859Z,961.49
2017-03-11T08:28:53.845Z,961.46
2017-03-11T08:29:53.832Z,961.45
2017-03-11T08:30:53.821Z,961.43
2017-03-11T08:31:53.807Z,961.38
2017-03-11T08:32:53.795Z,961.41
2017-03-11T08:33:53.784Z,961.33
2017-03-11T08:34:53.771Z,961.33
2017-03-11T08:35:53.759Z,961.33
2017-03-11T08:36:53.746Z,961.33
2017-03-11T08:37:53.733Z,961.34
2017-03-11T08:38:53.721Z,961.32
2017-03-11T08:39:53.708Z,961.33
2017-03-11T08:40:53.697Z,961.33
2017-03-11T08:41:53.684Z,961.28
2017-03-11T08:42:53.674Z,961.28
2017-03-11T08:43:53.659Z,961.32
2017-03-11T08:44:53.649Z,961.3
2017-03-11T08:45:53.639Z,961.31
2017-03-11T08:46:53.625Z,961.35
2017-03-11T08:47:53.612Z,961.34
2017-03-11T08:48:53.601Z,961.35
2017-03-11T08:49:53.590Z,961.39
2017-03-11T08:50:53.578Z,961.34
2017-03-11T08:51:53.566Z,961.38
2017-03-11T08:52:53.554Z,961.38
2017-03-11T08:53:53.542Z,961.38
2017-03-11T08:54:53.531Z,961.38
2017-03-11T08:55:53.520Z,961.4
2017-03-11T08:56:53.507Z,961.39
2017-03-11T08:57:53.495Z,961.36
2017-03-11T08:58:53.485Z,961.38
2017-03-11T08:59:53.474Z,961.35
2017-03-11T09:00:53.461Z,961.3
2017-03-11T09:01:53.451Z,961.32
2017-03-11T09:02:53.441Z,961.35
2017-03-11T09:03:53.429Z,961.32
2017-03-11T09:04:53.420Z,961.31
2017-03-11T09:05:53.407Z,961.25
2017-03-11T09:06:53.397Z,961.22
2017-03-11T09:07:53.385Z,961.22
2017-03-11T09:08:53.373Z,961.22
2017-03-11T09:09:53.365Z,961.22
2017-03-11T09:10:53.354Z,961.22
2017-03-11T09:11:53.342Z,961.27
2017-03-11T09:12:53.332Z,961.24
2017-03-11T09:13:53.322Z,961.28
2017-03-11T09:14:53.311Z,961.25
2017-03-11T09:15:53.298Z,961.23
2017-03-11T09:16:53.288Z,961.22
2017-03-11T09:17:53.277Z,961.22
2017-03-11T09:18:53.267Z,961.24
2017-03-11T09:19:53.255Z,961.23
2017-03-11T09:20:53.245Z,961.22
2017-03-11T09:21:53.235Z,961.14
2017-03-11T09:22:53.225Z,961.21
2017-03-11T09:23:53.214Z,961.14
2017-03-11T09:24:53.202Z,961.17
2017-03-11T09:25:53.193Z,961.12
2017-03-11T09:26:53.182Z,961.13
2017-03-11T09:27:53.172Z,961.08
2017-03-11T09:28:53.161Z,961.07
2017-03-11T09:29:53.151Z,961.05
2017-03-11T09:30:53.141Z,961.05
2017-03-11T09:31:53.129Z,961.01
2017-03-11T09:32:53.121Z,961.02
2017-03-11T09:33:53.108Z,960.98
2017-03-11T09:34:53.101Z,960.98
2017-03-11T09:35:53.088Z,960.99
2017-03-11T09:36:53.080Z,961.02
2017-03-11T09:37:53.068Z,960.96
2017-03-11T09:38:53.058Z,960.92
2017-03-11T09:39:53.048Z,960.94
2017-03-11T09:40:53.042Z,960.93
2017-03-11T09:41:53.025Z,960.94
2017-03-11T09:42:53.016Z,960.93
2017-03-11T09:43:53.007Z,960.94
2017-03-11T09:44:52.997Z,960.91
2017-03-11T09:45:52.985Z,960.97
2017-03-11T09:46:52.977Z,960.96
2017-03-11T09:47:52.966Z,960.92
2017-03-11T09:48:52.955Z,961
2017-03-11T09:49:52.947Z,960.98
2017-03-11T09:50:52.936Z,961.05
2017-03-11T09:51:52.926Z,961.06
2017-03-11T09:52:52.915Z,961.02
2017-03-11T09:53:52.907Z,961.02
2017-03-11T09:54:52.896Z,961.05
2017-03-11T09:55:52.885Z,961.04
2017-03-11T09:56:52.876Z,961.09
2017-03-11T09:57:52.867Z,961.12
2017-03-11T09:58:52.859Z,961.13
2017-03-11T09:59:52.847Z,961.16
2017-03-11T10:00:52.837Z,961.13
2017-03-11T10:01:52.828Z,961.17
2017-03-11T10:02:52.819Z,961.16
2017-03-11T10:03:52.807Z,961.19
2017-03-11T10:04:52.800Z,961.14
2017-03-11T10:05:52.789Z,961.15
2017-03-11T10:06:52.780Z,961.14
2017-03-11T10:07:52.769Z,961.14
2017-03-11T10:08:52.760Z,961.11
2017-03-11T10:09:52.750Z,961.16
2017-03-11T10:10:52.739Z,961.11
2017-03-11T10:11:52.730Z,961.17
2017-03-11T10:12:52.721Z,961.13
2017-03-11T10:13:52.712Z,961.13
2017-03-11T10:14:52.701Z,961.14
2017-03-11T10:15:52.693Z,961.12
2017-03-11T10:16:52.682Z,961.09
2017-03-11T10:17:52.671Z,961.08
2017-03-11T10:18:52.663Z,961.08
2017-03-11T10:19:52.655Z,961.11
2017-03-11T10:20:52.645Z,961.06
2017-03-11T10:21:52.634Z,961.05
2017-03-11T10:22:52.627Z,961.09
2017-03-11T10:23:52.615Z,961.07
2017-03-11T10:24:52.606Z,961.06
2017-03-11T10:25:52.595Z,961.04
2017-03-11T10:26:52.586Z,961.06
2017-03-11T10:27:52.576Z,960.95
2017-03-11T10:28:52.569Z,961.01
2017-03-11T10:29:52.558Z,961
2017-03-11T10:30:52.554Z,961.02
2017-03-11T10:31:52.538Z,961.01
2017-03-11T10:32:52.529Z,961.04
2017-03-11T10:33:52.545Z,961
2017-03-11T10:34:52.510Z,960.99
2017-03-11T10:35:52.500Z,960.99
2017-03-11T10:36:52.491Z,961
2017-03-11T10:37:52.481Z,960.9
2017-03-11T10:38:52.471Z,960.93
2017-03-11T10:39:52.461Z,960.92
2017-03-11T10:40:52.452Z,960.92
2017-03-11T10:41:52.443Z,960.9
2017-03-11T10:42:52.435Z,960.86
2017-03-11T10:43:52.424Z,960.89
2017-03-11T10:44:52.414Z,960.87
2017-03-11T10:45:52.407Z,960.89
2017-03-11T10:46:52.395Z,960.86
2017-03-11T10:47:52.386Z,960.83
2017-03-11T10:48:52.378Z,960.86
2017-03-11T10:49:52.369Z,960.85
2017-03-11T10:50:52.379Z,960.8
2017-03-11T10:51:52.349Z,960.81
2017-03-11T10:52:52.341Z,960.79
2017-03-11T10:53:52.329Z,960.74
2017-03-11T10:54:52.320Z,960.77
2017-03-11T10:55:52.311Z,960.78
2017-03-11T10:56:52.300Z,960.79
2017-03-11T10:57:52.290Z,960.78
2017-03-11T10:58:52.282Z,960.77
2017-03-11T10:59:52.272Z,960.75
2017-03-11T11:00:52.266Z,960.75
2017-03-11T11:01:52.252Z,960.74
2017-03-11T11:02:52.244Z,960.74
2017-03-11T11:03:52.232Z,960.74
2017-03-11T11:04:52.224Z,960.72
2017-03-11T11:05:52.216Z,960.71
2017-03-11T11:06:52.207Z,960.72
2017-03-11T11:07:52.197Z,960.68
2017-03-11T11:08:52.186Z,960.71
2017-03-11T11:09:52.177Z,960.67
2017-03-11T11:10:52.168Z,960.7
2017-03-11T11:11:52.158Z,960.69
2017-03-11T11:12:52.147Z,960.64
2017-03-11T11:13:52.140Z,960.6
2017-03-11T11:14:52.190Z,960.6
2017-03-11T11:15:52.120Z,960.62
2017-03-11T11:16:52.171Z,960.62
2017-03-11T11:17:52.101Z,960.58
2017-03-11T11:18:52.092Z,960.59
2017-03-11T11:19:52.081Z,960.59
2017-03-11T11:20:52.071Z,960.6
2017-03-11T11:21:52.064Z,960.54
2017-03-11T11:22:52.055Z,960.55
2017-03-11T11:23:52.044Z,960.54
2017-03-11T11:24:52.034Z,960.53
2017-03-11T11:25:52.026Z,960.49
2017-03-11T11:26:52.015Z,960.45
2017-03-11T11:27:52.006Z,960.48
2017-03-11T11:28:51.997Z,960.47
2017-03-11T11:29:51.987Z,960.42
2017-03-11T11:30:51.976Z,960.45
2017-03-11T11:31:51.968Z,960.46
2017-03-11T11:32:51.959Z,960.46
2017-03-11T11:33:52.116Z,960.42
2017-03-11T11:34:51.966Z,960.43
2017-03-11T11:35:51.962Z,960.38
2017-03-11T11:36:51.948Z,960.39
2017-03-11T11:37:51.942Z,960.36
2017-03-11T11:38:51.927Z,960.34
2017-03-11T11:39:51.920Z,960.35
2017-03-11T11:40:51.910Z,960.29
2017-03-11T11:41:51.902Z,960.27
2017-03-11T11:42:51.890Z,960.28
2017-03-11T11:43:51.885Z,960.27
2017-03-11T11:44:51.876Z,960.25
2017-03-11T11:45:51.863Z,960.24
2017-03-11T11:46:51.901Z,960.24
2017-03-11T11:47:51.841Z,960.2
2017-03-11T11:48:51.801Z,960.2
2017-03-11T11:49:51.792Z,960.22
2017-03-11T11:50:51.817Z,960.22
2017-03-11T11:51:51.854Z,960.18
2017-03-11T11:52:51.792Z,960.18
2017-03-11T11:53:51.788Z,960.16
2017-03-11T11:54:51.778Z,960.12
2017-03-11T11:55:51.771Z,960.13
2017-03-11T11:56:51.803Z,960.13
2017-03-11T11:57:51.749Z,960.14
2017-03-11T11:58:51.738Z,960.15
2017-03-11T11:59:51.733Z,960.13
2017-03-11T12:00:51.719Z,960.1
2017-03-11T12:01:51.761Z,960.1
2017-03-11T12:02:51.700Z,960.07
2017-03-11T12:03:51.688Z,960.02
2017-03-11T12:04:51.679Z,960.02
2017-03-11T12:05:51.672Z,960.01
2017-03-11T12:06:51.711Z,959.99
2017-03-11T12:07:51.652Z,959.97
2017-03-11T12:08:51.641Z,959.96
2017-03-11T12:09:51.632Z,959.89
2017-03-11T12:10:51.623Z,959.9
2017-03-11T12:11:51.663Z,959.9
2017-03-11T12:12:51.605Z,959.85
2017-03-11T12:13:51.594Z,959.82
2017-03-11T12:14:51.586Z,959.88
2017-03-11T12:15:51.576Z,959.87
2017-03-11T12:16:51.619Z,959.86
2017-03-11T12:17:51.560Z,959.8
2017-03-11T12:18:51.549Z,959.83
2017-03-11T12:19:51.542Z,959.85
2017-03-11T12:20:51.531Z,959.84
2017-03-11T12:21:51.571Z,959.82
2017-03-11T12:22:51.511Z,959.87
2017-03-11T12:23:51.506Z,959.86
2017-03-11T12:24:51.498Z,959.81
2017-03-11T12:25:51.490Z,959.8
2017-03-11T12:26:51.532Z,959.76
2017-03-11T12:27:51.474Z,959.72
2017-03-11T12:28:51.464Z,959.7
2017-03-11T12:29:51.453Z,959.69
2017-03-11T12:30:51.415Z,959.7
2017-03-11T12:31:51.407Z,959.68